createdAt,value
2022-11-13T00:05:40.078Z,100570.34
2022-11-13T00:11:41.936Z,100569.25
2022-11-13T00:17:43.961Z,100568.59
2022-11-13T00:23:46.063Z,100559.72
2022-11-13T00:29:47.897Z,100557.59
2022-11-13T00:35:49.729Z,100556.34
2022-11-13T00:41:51.613Z,100543.59
2022-11-13T00:47:53.494Z,100535.16
2022-11-13T00:53:55.357Z,100538.19
2022-11-13T00:59:57.218Z,100529.88
2022-11-13T01:05:59.144Z,100526.84
2022-11-13T01:12:01.040Z,100533.41
2022-11-13T01:18:02.880Z,100524.41
2022-11-13T01:24:05.062Z,100524.78
2022-11-13T01:30:07.956Z,100527.56
2022-11-13T01:36:16.137Z,100526.63
2022-11-13T01:42:18.036Z,100512.66
2022-11-13T01:48:20.063Z,100519.03
2022-11-13T01:54:33.364Z,100500.34
2022-11-13T02:00:35.396Z,100493.47
2022-11-13T02:06:46.004Z,100492.53
2022-11-13T02:12:51.445Z,100478.53
2022-11-13T02:18:53.747Z,100480.88
2022-11-13T02:24:58.612Z,100468.41
2022-11-13T02:31:12.296Z,100463.38
2022-11-13T02:37:14.200Z,100476.00
2022-11-13T02:43:16.056Z,100460.00
2022-11-13T02:49:17.954Z,100460.34
2022-11-13T02:55:19.922Z,100462.59
2022-11-13T03:01:21.869Z,100460.22
2022-11-13T03:07:23.773Z,100460.22
2022-11-13T03:13:25.880Z,100460.72
2022-11-13T03:19:28.262Z,100440.38
2022-11-13T03:25:30.233Z,100446.94
2022-11-13T03:31:32.106Z,100438.50
2022-11-13T03:37:34.133Z,100433.22
2022-11-13T03:43:35.985Z,100434.69
2022-11-13T03:49:37.917Z,100428.16
2022-11-13T03:55:40.202Z,100435.28
2022-11-13T04:01:42.287Z,100439.13
2022-11-13T04:07:44.278Z,100434.44
2022-11-13T04:13:46.138Z,100432.75
2022-11-13T04:19:48.001Z,100426.16
2022-11-13T04:25:49.856Z,100425.41
2022-11-13T04:31:51.713Z,100414.09
2022-11-13T04:37:53.609Z,100406.41
2022-11-13T04:43:55.449Z,100399.06
2022-11-13T04:49:57.313Z,100404.25
2022-11-13T04:55:59.230Z,100394.22
2022-11-13T05:02:01.246Z,100394.25
2022-11-13T05:08:03.414Z,100391.22
2022-11-13T05:14:05.893Z,100382.22
2022-11-13T05:20:08.449Z,100382.59
2022-11-13T05:26:13.547Z,100378.25
2022-11-13T05:32:15.432Z,100376.59
2022-11-13T05:38:17.385Z,100365.88
2022-11-13T05:44:19.293Z,100355.25
2022-11-13T05:50:21.154Z,100350.81
2022-11-13T05:56:33.960Z,100353.69
2022-11-13T06:02:35.834Z,100340.00
2022-11-13T06:08:38.094Z,100336.50
2022-11-13T06:14:39.967Z,100344.69
2022-11-13T06:20:41.845Z,100324.59
2022-11-13T06:26:43.714Z,100320.28
2022-11-13T06:32:51.321Z,100327.13
2022-11-13T06:38:53.773Z,100321.72
2022-11-13T06:44:55.700Z,100319.09
2022-11-13T06:51:02.716Z,100335.06
2022-11-13T06:57:04.597Z,100334.47
2022-11-13T07:03:20.032Z,100325.56
2022-11-13T07:09:21.918Z,100327.00
2022-11-13T07:15:23.733Z,100327.00
2022-11-13T07:21:25.621Z,100321.72
2022-11-13T07:27:27.477Z,100318.69
2022-11-13T07:33:29.390Z,100316.03
2022-11-13T07:39:31.235Z,100305.59
2022-11-13T07:45:33.101Z,100314.72
2022-11-13T07:51:35.028Z,100305.84
2022-11-13T07:57:36.852Z,100310.78
2022-11-13T08:03:38.735Z,100311.50
2022-11-13T08:09:40.609Z,100310.44
2022-11-13T08:15:42.699Z,100306.06
2022-11-13T08:21:44.564Z,100306.44
2022-11-13T08:27:46.428Z,100309.81
2022-11-13T08:33:48.301Z,100305.47
2022-11-13T08:39:50.171Z,100304.53
2022-11-13T08:45:52.092Z,100302.91
2022-11-13T08:51:53.955Z,100305.09
2022-11-13T08:58:02.260Z,100295.75
2022-11-13T09:04:04.247Z,100294.59
2022-11-13T09:10:07.266Z,100299.47
2022-11-13T09:16:09.903Z,100280.41
2022-11-13T09:22:12.097Z,100278.19
2022-11-13T09:28:14.117Z,100271.94
2022-11-13T09:34:16.090Z,100260.81
2022-11-13T09:40:29.525Z,100255.59
2022-11-13T09:46:46.351Z,100254.38
2022-11-13T09:52:49.241Z,100240.94
2022-11-13T09:59:51.115Z,100235.63
2022-11-13T10:06:14.433Z,100223.94
2022-11-13T10:12:16.495Z,100214.13
2022-11-13T10:18:33.449Z,100192.91
2022-11-13T10:24:44.562Z,100192.22
2022-11-13T10:30:47.471Z,100191.38
2022-11-13T10:37:12.198Z,100183.28
2022-11-13T10:43:22.825Z,100178.78
2022-11-13T10:49:30.779Z,100171.88
2022-11-13T10:55:40.572Z,100167.53
2022-11-13T11:01:44.616Z,100142.31
2022-11-13T11:07:47.003Z,100144.78
2022-11-13T11:13:49.009Z,100131.84
2022-11-13T11:20:21.971Z,100136.78
2022-11-13T11:26:39.515Z,100135.03
2022-11-13T11:32:52.510Z,100123.22
2022-11-13T11:39:08.003Z,100112.09
2022-11-13T11:45:12.598Z,100099.16
2022-11-13T11:51:54.565Z,100099.34
2022-11-13T11:58:18.340Z,100088.44
2022-11-13T12:04:49.219Z,100074.53
2022-11-13T12:11:04.927Z,100061.06
2022-11-13T12:17:30.230Z,100051.81
2022-11-13T12:23:58.001Z,100040.28
2022-11-13T12:30:20.944Z,100027.66
2022-11-13T12:36:23.807Z,100024.91
2022-11-13T12:42:49.644Z,100021.22
2022-11-13T12:48:51.543Z,100013.28
2022-11-13T12:55:24.555Z,100007.44
2022-11-13T13:01:32.850Z,99995.91
2022-11-13T13:08:04.573Z,99998.16
2022-11-13T13:14:25.294Z,99988.63
2022-11-13T13:20:38.082Z,99981.06
2022-11-13T13:26:47.330Z,99981.16
2022-11-13T13:33:21.513Z,99964.03
2022-11-13T13:40:11.015Z,99955.91
2022-11-13T13:46:24.567Z,99950.88
2022-11-13T13:52:33.187Z,99941.78
2022-11-13T13:58:37.623Z,99939.97
2022-11-13T14:04:48.382Z,99920.94
2022-11-13T14:10:51.586Z,99923.75
2022-11-13T14:17:00.424Z,99916.56
2022-11-13T14:23:02.683Z,99910.34
2022-11-13T14:29:04.671Z,99905.50
2022-11-13T14:35:08.173Z,99902.25
2022-11-13T14:41:30.796Z,99902.50
2022-11-13T14:47:37.510Z,99910.00
2022-11-13T14:53:42.332Z,99923.88
2022-11-13T14:59:44.397Z,99922.84
2022-11-13T15:05:46.307Z,99913.66
2022-11-13T15:11:48.359Z,99914.94
2022-11-13T15:17:52.232Z,99916.81
2022-11-13T15:23:54.102Z,99927.22
2022-11-13T15:29:55.944Z,99919.56
2022-11-13T15:35:57.829Z,99911.69
2022-11-13T15:41:59.763Z,99908.38
2022-11-13T15:48:02.095Z,99896.00
2022-11-13T15:54:25.393Z,99888.28
2022-11-13T16:00:29.154Z,99889.19
2022-11-13T16:06:33.720Z,99884.28
2022-11-13T16:12:35.932Z,99876.84
2022-11-13T16:18:37.859Z,99878.09
2022-11-13T16:24:39.729Z,99867.25
2022-11-13T16:30:41.722Z,99872.47
2022-11-13T16:36:43.828Z,99869.69
2022-11-13T16:42:45.875Z,99863.78
2022-11-13T16:48:48.300Z,99863.34
2022-11-13T16:54:51.491Z,99856.66
2022-11-13T17:00:59.889Z,99854.97
2022-11-13T17:07:02.407Z,99856.69
2022-11-13T17:13:06.956Z,99870.22
2022-11-13T17:19:13.355Z,99873.09
2022-11-13T17:25:17.650Z,99890.31
2022-11-13T17:31:20.787Z,99899.81
2022-11-13T17:37:25.047Z,99892.69
2022-11-13T17:43:27.749Z,99893.69
2022-11-13T17:49:29.828Z,99890.38
2022-11-13T17:55:31.784Z,99895.47
2022-11-13T18:01:33.960Z,99895.28
2022-11-13T18:07:36.968Z,99892.66
2022-11-13T18:13:39.023Z,99890.41
2022-11-13T18:19:40.905Z,99891.13
2022-11-13T18:25:42.781Z,99894.66
2022-11-13T18:31:45.075Z,99881.06
2022-11-13T18:37:47.078Z,99893.22
2022-11-13T18:43:51.362Z,99881.66
2022-11-13T18:49:53.278Z,99871.88
2022-11-13T18:56:07.527Z,99869.50
2022-11-13T19:02:11.564Z,99877.38
2022-11-13T19:08:14.303Z,99876.88
2022-11-13T19:14:18.306Z,99874.66
2022-11-13T19:20:20.253Z,99851.34
2022-11-13T19:26:22.408Z,99857.06
2022-11-13T19:32:24.428Z,99843.22
2022-11-13T19:38:27.662Z,99838.19
2022-11-13T19:44:29.658Z,99830.22
2022-11-13T19:50:31.775Z,99833.59
2022-11-13T19:56:33.729Z,99829.88
2022-11-13T20:02:35.573Z,99815.28
2022-11-13T20:08:37.938Z,99808.25
2022-11-13T20:14:39.833Z,99799.25
2022-11-13T20:20:44.438Z,99792.16
2022-11-13T20:26:46.459Z,99795.56
2022-11-13T20:32:48.367Z,99790.50
2022-11-13T20:38:52.961Z,99788.34
2022-11-13T20:44:59.874Z,99786.19
2022-11-13T20:51:12.516Z,99781.59
2022-11-13T20:57:14.404Z,99772.97
2022-11-13T21:03:16.286Z,99763.25
2022-11-13T21:09:18.199Z,99753.97
2022-11-13T21:15:20.132Z,99739.94
2022-11-13T21:21:22.999Z,99748.69
2022-11-13T21:27:24.860Z,99746.13
2022-11-13T21:33:26.707Z,99735.53
2022-11-13T21:39:28.783Z,99716.22
2022-11-13T21:45:34.046Z,99704.56
2022-11-13T21:51:38.213Z,99699.25
2022-11-13T21:57:40.071Z,99695.28
2022-11-13T22:03:42.195Z,99696.50
2022-11-13T22:09:44.137Z,99687.97
2022-11-13T22:15:46.039Z,99691.28
2022-11-13T22:21:48.028Z,99685.84
2022-11-13T22:27:49.888Z,99672.31
2022-11-13T22:33:55.083Z,99682.41
2022-11-13T22:39:57.303Z,99670.25
2022-11-13T22:46:08.046Z,99660.34
2022-11-13T22:52:09.983Z,99648.25
2022-11-13T22:58:11.841Z,99639.19
2022-11-13T23:04:14.108Z,99636.56
2022-11-13T23:10:16.094Z,99630.69
2022-11-13T23:16:19.199Z,99624.28
2022-11-13T23:22:21.409Z,99617.72
2022-11-13T23:28:23.437Z,99612.34
2022-11-13T23:34:45.440Z,99599.28
2022-11-13T23:40:47.194Z,99604.84
2022-11-13T23:46:49.025Z,99595.63
2022-11-13T23:52:50.874Z,99591.59
2022-11-13T23:58:53.551Z,99587.38
